sensor_id;sensor_type;location;lat;lon;timestamp;temperature;humidity
17252;DHT22;8742;51.716;8.790;2022-10-13T00:00:42;9.60;99.90
17252;DHT22;8742;51.716;8.790;2022-10-13T00:03:09;9.60;99.90
17252;DHT22;8742;51.716;8.790;2022-10-13T00:05:40;9.70;99.90
17252;DHT22;8742;51.716;8.790;2022-10-13T00:08:07;9.70;99.90
17252;DHT22;8742;51.716;8.790;2022-10-13T00:10:35;9.70;99.90
17252;DHT22;8742;51.716;8.790;2022-10-13T00:13:04;9.80;99.90
17252;DHT22;8742;51.716;8.790;2022-10-13T00:15:31;9.80;99.90
17252;DHT22;8742;51.716;8.790;2022-10-13T00:17:58;9.80;99.90
17252;DHT22;8742;51.716;8.790;2022-10-13T00:20:24;9.80;99.90
17252;DHT22;8742;51.716;8.790;2022-10-13T00:22:51;9.80;99.90
17252;DHT22;8742;51.716;8.790;2022-10-13T00:25:18;9.80;99.90
17252;DHT22;8742;51.716;8.790;2022-10-13T00:27:45;9.80;99.90
17252;DHT22;8742;51.716;8.790;2022-10-13T00:30:14;9.80;99.90
17252;DHT22;8742;51.716;8.790;2022-10-13T00:32:40;9.80;99.90
17252;DHT22;8742;51.716;8.790;2022-10-13T00:35:08;9.80;99.90
17252;DHT22;8742;51.716;8.790;2022-10-13T00:37:34;9.80;99.90
17252;DHT22;8742;51.716;8.790;2022-10-13T00:40:01;9.90;99.90
17252;DHT22;8742;51.716;8.790;2022-10-13T00:42:28;9.90;99.90
17252;DHT22;8742;51.716;8.790;2022-10-13T00:45:05;10.00;99.90
17252;DHT22;8742;51.716;8.790;2022-10-13T00:47:36;10.00;99.90
17252;DHT22;8742;51.716;8.790;2022-10-13T00:50:05;10.00;99.90
17252;DHT22;8742;51.716;8.790;2022-10-13T00:52:33;10.00;99.90
17252;DHT22;8742;51.716;8.790;2022-10-13T00:55:01;10.10;99.90
17252;DHT22;8742;51.716;8.790;2022-10-13T00:57:28;10.10;99.90
17252;DHT22;8742;51.716;8.790;2022-10-13T00:59:55;10.10;99.90
17252;DHT22;8742;51.716;8.790;2022-10-13T01:02:26;10.10;99.90
17252;DHT22;8742;51.716;8.790;2022-10-13T01:04:57;10.10;99.90
17252;DHT22;8742;51.716;8.790;2022-10-13T01:07:24;10.10;99.90
17252;DHT22;8742;51.716;8.790;2022-10-13T01:09:51;10.10;99.90
17252;DHT22;8742;51.716;8.790;2022-10-13T01:12:28;10.10;99.90
17252;DHT22;8742;51.716;8.790;2022-10-13T01:15:04;10.20;99.90
17252;DHT22;8742;51.716;8.790;2022-10-13T01:17:37;10.20;99.90
17252;DHT22;8742;51.716;8.790;2022-10-13T01:20:47;10.20;99.90
17252;DHT22;8742;51.716;8.790;2022-10-13T01:23:29;10.30;99.90
17252;DHT22;8742;51.716;8.790;2022-10-13T01:26:22;10.30;99.90
17252;DHT22;8742;51.716;8.790;2022-10-13T01:29:10;10.30;99.90
17252;DHT22;8742;51.716;8.790;2022-10-13T01:31:43;10.20;99.90
17252;DHT22;8742;51.716;8.790;2022-10-13T01:34:16;10.20;99.90
17252;DHT22;8742;51.716;8.790;2022-10-13T01:36:49;10.20;99.90
17252;DHT22;8742;51.716;8.790;2022-10-13T01:39:23;10.20;99.90
17252;DHT22;8742;51.716;8.790;2022-10-13T01:41:59;10.30;99.90
17252;DHT22;8742;51.716;8.790;2022-10-13T01:44:31;10.30;99.90
17252;DHT22;8742;51.716;8.790;2022-10-13T01:47:01;10.30;99.90
17252;DHT22;8742;51.716;8.790;2022-10-13T01:49:32;10.40;99.90
17252;DHT22;8742;51.716;8.790;2022-10-13T01:52:02;10.40;99.90
17252;DHT22;8742;51.716;8.790;2022-10-13T01:54:31;10.50;99.90
17252;DHT22;8742;51.716;8.790;2022-10-13T01:56:58;10.50;99.90
17252;DHT22;8742;51.716;8.790;2022-10-13T01:59:27;10.50;99.90
17252;DHT22;8742;51.716;8.790;2022-10-13T02:02:02;10.50;99.90
17252;DHT22;8742;51.716;8.790;2022-10-13T02:04:44;10.60;99.90
17252;DHT22;8742;51.716;8.790;2022-10-13T02:07:18;10.60;99.90
17252;DHT22;8742;51.716;8.790;2022-10-13T02:09:53;10.60;99.90
17252;DHT22;8742;51.716;8.790;2022-10-13T02:12:26;10.70;99.90
17252;DHT22;8742;51.716;8.790;2022-10-13T02:14:56;10.70;99.90
17252;DHT22;8742;51.716;8.790;2022-10-13T02:17:26;10.70;99.90
17252;DHT22;8742;51.716;8.790;2022-10-13T02:19:54;10.80;99.90
17252;DHT22;8742;51.716;8.790;2022-10-13T02:22:24;10.80;99.90
17252;DHT22;8742;51.716;8.790;2022-10-13T02:24:52;10.80;99.90
17252;DHT22;8742;51.716;8.790;2022-10-13T02:27:20;10.90;99.90
17252;DHT22;8742;51.716;8.790;2022-10-13T02:29:49;10.90;99.90
17252;DHT22;8742;51.716;8.790;2022-10-13T02:32:16;10.90;99.90
17252;DHT22;8742;51.716;8.790;2022-10-13T02:34:44;11.00;99.90
17252;DHT22;8742;51.716;8.790;2022-10-13T02:37:11;11.00;99.90
17252;DHT22;8742;51.716;8.790;2022-10-13T02:39:38;11.00;99.90
17252;DHT22;8742;51.716;8.790;2022-10-13T02:42:05;11.00;99.90
17252;DHT22;8742;51.716;8.790;2022-10-13T02:44:32;11.00;99.90
17252;DHT22;8742;51.716;8.790;2022-10-13T02:46:59;11.00;99.90
17252;DHT22;8742;51.716;8.790;2022-10-13T02:49:26;11.00;99.90
17252;DHT22;8742;51.716;8.790;2022-10-13T02:51:54;11.00;99.90
17252;DHT22;8742;51.716;8.790;2022-10-13T02:54:21;11.10;99.90
17252;DHT22;8742;51.716;8.790;2022-10-13T02:56:48;11.10;99.90
17252;DHT22;8742;51.716;8.790;2022-10-13T02:59:15;11.10;99.90
17252;DHT22;8742;51.716;8.790;2022-10-13T03:01:41;11.00;99.90
17252;DHT22;8742;51.716;8.790;2022-10-13T03:04:09;11.00;99.90
17252;DHT22;8742;51.716;8.790;2022-10-13T03:06:37;11.00;99.90
17252;DHT22;8742;51.716;8.790;2022-10-13T03:09:05;11.10;99.90
17252;DHT22;8742;51.716;8.790;2022-10-13T03:11:32;11.10;99.90
17252;DHT22;8742;51.716;8.790;2022-10-13T03:13:58;11.10;99.90
17252;DHT22;8742;51.716;8.790;2022-10-13T03:16:25;11.10;99.90
17252;DHT22;8742;51.716;8.790;2022-10-13T03:18:52;11.10;99.90
17252;DHT22;8742;51.716;8.790;2022-10-13T03:21:19;11.10;99.90
17252;DHT22;8742;51.716;8.790;2022-10-13T03:23:46;11.10;99.90
17252;DHT22;8742;51.716;8.790;2022-10-13T03:26:14;11.10;99.90
17252;DHT22;8742;51.716;8.790;2022-10-13T03:28:41;11.10;99.90
17252;DHT22;8742;51.716;8.790;2022-10-13T03:31:10;11.10;99.90
17252;DHT22;8742;51.716;8.790;2022-10-13T03:33:38;11.10;99.90
17252;DHT22;8742;51.716;8.790;2022-10-13T03:36:05;11.10;99.90
17252;DHT22;8742;51.716;8.790;2022-10-13T03:38:34;11.20;99.90
17252;DHT22;8742;51.716;8.790;2022-10-13T03:41:04;11.20;99.90
17252;DHT22;8742;51.716;8.790;2022-10-13T03:43:33;11.20;99.90
17252;DHT22;8742;51.716;8.790;2022-10-13T03:46:01;11.20;99.90
17252;DHT22;8742;51.716;8.790;2022-10-13T03:48:29;11.20;99.90
17252;DHT22;8742;51.716;8.790;2022-10-13T03:50:56;11.20;99.90
17252;DHT22;8742;51.716;8.790;2022-10-13T03:53:23;11.20;99.90
17252;DHT22;8742;51.716;8.790;2022-10-13T03:55:51;11.20;99.90
17252;DHT22;8742;51.716;8.790;2022-10-13T03:58:19;11.10;99.90
17252;DHT22;8742;51.716;8.790;2022-10-13T04:00:47;11.10;99.90
17252;DHT22;8742;51.716;8.790;2022-10-13T04:03:15;11.10;99.90
17252;DHT22;8742;51.716;8.790;2022-10-13T04:05:42;11.00;99.90
17252;DHT22;8742;51.716;8.790;2022-10-13T04:08:09;11.00;99.90
17252;DHT22;8742;51.716;8.790;2022-10-13T04:10:37;10.90;99.90
17252;DHT22;8742;51.716;8.790;2022-10-13T04:13:04;10.90;99.90
17252;DHT22;8742;51.716;8.790;2022-10-13T04:15:35;10.90;99.90
17252;DHT22;8742;51.716;8.790;2022-10-13T04:18:04;10.90;99.90
17252;DHT22;8742;51.716;8.790;2022-10-13T04:20:31;10.90;99.90
17252;DHT22;8742;51.716;8.790;2022-10-13T04:23:00;10.80;99.90
17252;DHT22;8742;51.716;8.790;2022-10-13T04:25:27;10.80;99.90
17252;DHT22;8742;51.716;8.790;2022-10-13T04:27:54;10.70;99.90
17252;DHT22;8742;51.716;8.790;2022-10-13T04:30:21;10.80;99.90
17252;DHT22;8742;51.716;8.790;2022-10-13T04:32:47;10.70;99.90
17252;DHT22;8742;51.716;8.790;2022-10-13T04:35:16;10.70;99.90
17252;DHT22;8742;51.716;8.790;2022-10-13T04:37:43;10.70;99.90
17252;DHT22;8742;51.716;8.790;2022-10-13T04:40:10;10.70;99.90
17252;DHT22;8742;51.716;8.790;2022-10-13T04:42:36;10.60;99.90
17252;DHT22;8742;51.716;8.790;2022-10-13T04:45:04;10.60;99.90
17252;DHT22;8742;51.716;8.790;2022-10-13T04:47:32;10.70;99.90
17252;DHT22;8742;51.716;8.790;2022-10-13T04:49:59;10.70;99.90
17252;DHT22;8742;51.716;8.790;2022-10-13T04:52:28;10.80;99.90
17252;DHT22;8742;51.716;8.790;2022-10-13T04:54:54;10.80;99.90
17252;DHT22;8742;51.716;8.790;2022-10-13T04:57:21;10.80;99.90
17252;DHT22;8742;51.716;8.790;2022-10-13T04:59:48;10.90;99.90
17252;DHT22;8742;51.716;8.790;2022-10-13T05:02:16;10.90;99.90
17252;DHT22;8742;51.716;8.790;2022-10-13T05:04:42;10.90;99.90
17252;DHT22;8742;51.716;8.790;2022-10-13T05:07:09;11.00;99.90
17252;DHT22;8742;51.716;8.790;2022-10-13T05:09:38;11.00;99.90
17252;DHT22;8742;51.716;8.790;2022-10-13T05:12:05;11.00;99.90
17252;DHT22;8742;51.716;8.790;2022-10-13T05:14:32;11.00;99.90
17252;DHT22;8742;51.716;8.790;2022-10-13T05:16:59;11.00;99.90
17252;DHT22;8742;51.716;8.790;2022-10-13T05:19:26;11.00;99.90
17252;DHT22;8742;51.716;8.790;2022-10-13T05:21:53;11.10;99.90
17252;DHT22;8742;51.716;8.790;2022-10-13T05:24:20;11.10;99.90
17252;DHT22;8742;51.716;8.790;2022-10-13T05:26:56;11.10;99.90
17252;DHT22;8742;51.716;8.790;2022-10-13T05:29:23;11.10;99.90
17252;DHT22;8742;51.716;8.790;2022-10-13T05:31:50;11.10;99.90
17252;DHT22;8742;51.716;8.790;2022-10-13T05:34:17;11.10;99.90
17252;DHT22;8742;51.716;8.790;2022-10-13T05:36:44;11.10;99.90
17252;DHT22;8742;51.716;8.790;2022-10-13T05:39:11;11.20;99.90
17252;DHT22;8742;51.716;8.790;2022-10-13T05:41:37;11.10;99.90
17252;DHT22;8742;51.716;8.790;2022-10-13T05:44:08;11.20;99.90
17252;DHT22;8742;51.716;8.790;2022-10-13T05:46:35;11.20;99.90
17252;DHT22;8742;51.716;8.790;2022-10-13T05:49:02;11.20;99.90
17252;DHT22;8742;51.716;8.790;2022-10-13T05:51:31;11.20;99.90
17252;DHT22;8742;51.716;8.790;2022-10-13T05:54:01;11.20;99.90
17252;DHT22;8742;51.716;8.790;2022-10-13T05:56:32;11.20;99.90
17252;DHT22;8742;51.716;8.790;2022-10-13T05:59:04;11.20;99.90
17252;DHT22;8742;51.716;8.790;2022-10-13T06:01:36;11.20;99.90
17252;DHT22;8742;51.716;8.790;2022-10-13T06:04:08;11.20;99.90
17252;DHT22;8742;51.716;8.790;2022-10-13T06:06:36;11.20;99.90
17252;DHT22;8742;51.716;8.790;2022-10-13T06:09:04;11.20;99.90
17252;DHT22;8742;51.716;8.790;2022-10-13T06:11:31;11.30;99.90
17252;DHT22;8742;51.716;8.790;2022-10-13T06:13:58;11.30;99.90
17252;DHT22;8742;51.716;8.790;2022-10-13T06:16:25;11.30;99.90
17252;DHT22;8742;51.716;8.790;2022-10-13T06:18:53;11.40;99.90
17252;DHT22;8742;51.716;8.790;2022-10-13T06:21:20;11.40;99.90
17252;DHT22;8742;51.716;8.790;2022-10-13T06:23:47;11.40;99.90
17252;DHT22;8742;51.716;8.790;2022-10-13T06:26:13;11.50;99.90
17252;DHT22;8742;51.716;8.790;2022-10-13T06:28:40;11.50;99.90
17252;DHT22;8742;51.716;8.790;2022-10-13T06:31:07;11.50;99.90
17252;DHT22;8742;51.716;8.790;2022-10-13T06:33:34;11.50;99.90
17252;DHT22;8742;51.716;8.790;2022-10-13T06:36:03;11.60;99.90
17252;DHT22;8742;51.716;8.790;2022-10-13T06:38:31;11.60;99.90
17252;DHT22;8742;51.716;8.790;2022-10-13T06:41:01;11.60;99.90
17252;DHT22;8742;51.716;8.790;2022-10-13T06:43:28;11.70;99.90
17252;DHT22;8742;51.716;8.790;2022-10-13T06:45:57;11.70;99.90
17252;DHT22;8742;51.716;8.790;2022-10-13T06:48:25;11.80;99.90
17252;DHT22;8742;51.716;8.790;2022-10-13T06:50:52;11.80;99.90
17252;DHT22;8742;51.716;8.790;2022-10-13T06:53:20;11.80;99.90
17252;DHT22;8742;51.716;8.790;2022-10-13T06:55:47;11.90;99.90
17252;DHT22;8742;51.716;8.790;2022-10-13T06:58:13;11.90;99.90
17252;DHT22;8742;51.716;8.790;2022-10-13T07:00:40;11.90;99.90
17252;DHT22;8742;51.716;8.790;2022-10-13T07:03:09;12.00;99.90
17252;DHT22;8742;51.716;8.790;2022-10-13T07:05:36;12.00;99.90
17252;DHT22;8742;51.716;8.790;2022-10-13T07:08:03;12.10;99.90
17252;DHT22;8742;51.716;8.790;2022-10-13T07:10:32;12.10;99.90
17252;DHT22;8742;51.716;8.790;2022-10-13T07:12:59;12.20;99.90
17252;DHT22;8742;51.716;8.790;2022-10-13T07:15:25;12.20;99.90
17252;DHT22;8742;51.716;8.790;2022-10-13T07:17:53;12.20;99.90
17252;DHT22;8742;51.716;8.790;2022-10-13T07:20:20;12.20;99.90
17252;DHT22;8742;51.716;8.790;2022-10-13T07:22:47;12.30;99.90
17252;DHT22;8742;51.716;8.790;2022-10-13T07:25:14;12.30;99.90
17252;DHT22;8742;51.716;8.790;2022-10-13T07:27:42;12.40;99.90
17252;DHT22;8742;51.716;8.790;2022-10-13T07:30:10;12.40;99.90
17252;DHT22;8742;51.716;8.790;2022-10-13T07:32:37;12.50;99.90
17252;DHT22;8742;51.716;8.790;2022-10-13T07:35:07;12.60;99.90
17252;DHT22;8742;51.716;8.790;2022-10-13T07:37:34;12.70;99.90
17252;DHT22;8742;51.716;8.790;2022-10-13T07:40:00;12.70;99.90
17252;DHT22;8742;51.716;8.790;2022-10-13T07:42:27;12.80;99.90
17252;DHT22;8742;51.716;8.790;2022-10-13T07:44:55;12.90;99.90
17252;DHT22;8742;51.716;8.790;2022-10-13T07:47:22;13.00;99.90
17252;DHT22;8742;51.716;8.790;2022-10-13T07:49:49;13.10;99.90
17252;DHT22;8742;51.716;8.790;2022-10-13T07:52:16;13.10;99.90
17252;DHT22;8742;51.716;8.790;2022-10-13T07:54:43;13.20;99.90
17252;DHT22;8742;51.716;8.790;2022-10-13T07:57:10;13.20;99.90
17252;DHT22;8742;51.716;8.790;2022-10-13T07:59:37;13.30;99.90
17252;DHT22;8742;51.716;8.790;2022-10-13T08:02:05;13.40;99.90
17252;DHT22;8742;51.716;8.790;2022-10-13T08:04:33;13.40;99.90
17252;DHT22;8742;51.716;8.790;2022-10-13T08:07:01;13.50;99.90
17252;DHT22;8742;51.716;8.790;2022-10-13T08:09:28;13.60;99.90
17252;DHT22;8742;51.716;8.790;2022-10-13T08:11:54;13.60;99.90
17252;DHT22;8742;51.716;8.790;2022-10-13T08:14:21;13.70;99.90
17252;DHT22;8742;51.716;8.790;2022-10-13T08:16:48;13.80;99.90
17252;DHT22;8742;51.716;8.790;2022-10-13T08:19:17;13.90;99.90
17252;DHT22;8742;51.716;8.790;2022-10-13T08:21:44;13.90;99.90
17252;DHT22;8742;51.716;8.790;2022-10-13T08:24:13;14.00;99.90
17252;DHT22;8742;51.716;8.790;2022-10-13T08:26:41;14.00;99.90
17252;DHT22;8742;51.716;8.790;2022-10-13T08:29:08;14.10;99.90
17252;DHT22;8742;51.716;8.790;2022-10-13T08:31:35;14.30;99.90
17252;DHT22;8742;51.716;8.790;2022-10-13T08:34:02;14.50;99.90
17252;DHT22;8742;51.716;8.790;2022-10-13T08:36:30;14.70;99.90
17252;DHT22;8742;51.716;8.790;2022-10-13T08:38:57;14.80;99.90
17252;DHT22;8742;51.716;8.790;2022-10-13T08:41:25;14.90;99.90
17252;DHT22;8742;51.716;8.790;2022-10-13T08:43:56;14.90;99.90
17252;DHT22;8742;51.716;8.790;2022-10-13T08:46:29;15.10;99.90
17252;DHT22;8742;51.716;8.790;2022-10-13T08:49:00;15.30;99.90
17252;DHT22;8742;51.716;8.790;2022-10-13T08:51:29;15.40;99.90
17252;DHT22;8742;51.716;8.790;2022-10-13T08:53:56;15.40;99.90
17252;DHT22;8742;51.716;8.790;2022-10-13T08:56:25;15.70;99.90
17252;DHT22;8742;51.716;8.790;2022-10-13T08:58:53;16.30;99.90
17252;DHT22;8742;51.716;8.790;2022-10-13T09:01:22;16.80;99.90
17252;DHT22;8742;51.716;8.790;2022-10-13T09:03:53;17.20;99.90
17252;DHT22;8742;51.716;8.790;2022-10-13T09:06:22;17.80;99.90
17252;DHT22;8742;51.716;8.790;2022-10-13T09:08:56;18.40;99.90
17252;DHT22;8742;51.716;8.790;2022-10-13T09:11:26;18.80;99.90
17252;DHT22;8742;51.716;8.790;2022-10-13T09:13:55;19.20;99.90
17252;DHT22;8742;51.716;8.790;2022-10-13T09:16:32;19.80;99.90
17252;DHT22;8742;51.716;8.790;2022-10-13T09:19:18;20.40;99.90
17252;DHT22;8742;51.716;8.790;2022-10-13T09:21:45;21.10;99.90
17252;DHT22;8742;51.716;8.790;2022-10-13T09:24:16;21.60;99.90
17252;DHT22;8742;51.716;8.790;2022-10-13T09:26:45;21.70;99.90
17252;DHT22;8742;51.716;8.790;2022-10-13T09:29:17;21.50;99.90
17252;DHT22;8742;51.716;8.790;2022-10-13T09:31:45;21.00;99.90
17252;DHT22;8742;51.716;8.790;2022-10-13T09:34:15;20.50;99.90
17252;DHT22;8742;51.716;8.790;2022-10-13T09:36:55;20.20;99.90
17252;DHT22;8742;51.716;8.790;2022-10-13T09:39:24;20.00;99.90
17252;DHT22;8742;51.716;8.790;2022-10-13T09:41:51;19.70;99.90
17252;DHT22;8742;51.716;8.790;2022-10-13T09:44:26;19.40;99.90
17252;DHT22;8742;51.716;8.790;2022-10-13T09:46:55;19.20;99.90
17252;DHT22;8742;51.716;8.790;2022-10-13T09:49:34;19.10;99.90
17252;DHT22;8742;51.716;8.790;2022-10-13T09:52:04;19.10;99.90
17252;DHT22;8742;51.716;8.790;2022-10-13T09:54:44;19.30;99.90
17252;DHT22;8742;51.716;8.790;2022-10-13T09:57:19;19.50;99.90
17252;DHT22;8742;51.716;8.790;2022-10-13T09:59:49;20.00;99.90
17252;DHT22;8742;51.716;8.790;2022-10-13T10:02:25;20.40;99.90
17252;DHT22;8742;51.716;8.790;2022-10-13T10:04:57;20.80;99.90
17252;DHT22;8742;51.716;8.790;2022-10-13T10:07:28;20.60;99.90
17252;DHT22;8742;51.716;8.790;2022-10-13T10:10:00;20.30;99.90
17252;DHT22;8742;51.716;8.790;2022-10-13T10:12:31;20.00;99.90
17252;DHT22;8742;51.716;8.790;2022-10-13T10:15:01;19.90;99.90
17252;DHT22;8742;51.716;8.790;2022-10-13T10:17:34;20.20;99.90
17252;DHT22;8742;51.716;8.790;2022-10-13T10:20:15;20.20;99.90
17252;DHT22;8742;51.716;8.790;2022-10-13T10:22:54;20.20;99.90
17252;DHT22;8742;51.716;8.790;2022-10-13T10:25:30;20.10;99.90
17252;DHT22;8742;51.716;8.790;2022-10-13T10:28:15;20.00;99.90
17252;DHT22;8742;51.716;8.790;2022-10-13T10:30:47;19.80;99.90
17252;DHT22;8742;51.716;8.790;2022-10-13T10:33:19;19.90;99.90
17252;DHT22;8742;51.716;8.790;2022-10-13T10:35:51;19.80;99.90
17252;DHT22;8742;51.716;8.790;2022-10-13T10:38:28;19.90;99.90
17252;DHT22;8742;51.716;8.790;2022-10-13T10:41:04;19.90;99.90
17252;DHT22;8742;51.716;8.790;2022-10-13T10:43:41;20.00;99.90
17252;DHT22;8742;51.716;8.790;2022-10-13T10:46:15;20.10;99.90
17252;DHT22;8742;51.716;8.790;2022-10-13T10:48:44;20.60;99.90
17252;DHT22;8742;51.716;8.790;2022-10-13T10:51:13;20.70;99.90
17252;DHT22;8742;51.716;8.790;2022-10-13T10:53:48;20.70;99.90
17252;DHT22;8742;51.716;8.790;2022-10-13T10:56:26;20.60;99.90
17252;DHT22;8742;51.716;8.790;2022-10-13T10:59:04;20.50;99.90
17252;DHT22;8742;51.716;8.790;2022-10-13T11:01:40;20.40;99.90
17252;DHT22;8742;51.716;8.790;2022-10-13T11:04:32;20.40;99.90
17252;DHT22;8742;51.716;8.790;2022-10-13T11:07:01;20.40;99.90
17252;DHT22;8742;51.716;8.790;2022-10-13T11:10:01;20.40;99.90
17252;DHT22;8742;51.716;8.790;2022-10-13T11:13:03;20.20;99.90
17252;DHT22;8742;51.716;8.790;2022-10-13T11:15:41;20.20;99.90
17252;DHT22;8742;51.716;8.790;2022-10-13T11:21:12;20.00;99.90
17252;DHT22;8742;51.716;8.790;2022-10-13T11:23:44;19.90;99.90
17252;DHT22;8742;51.716;8.790;2022-10-13T11:26:44;20.00;99.90
17252;DHT22;8742;51.716;8.790;2022-10-13T11:29:51;20.00;99.90
17252;DHT22;8742;51.716;8.790;2022-10-13T11:32:44;20.90;99.90
17252;DHT22;8742;51.716;8.790;2022-10-13T11:35:23;22.10;99.90
17252;DHT22;8742;51.716;8.790;2022-10-13T11:38:03;22.80;99.90
17252;DHT22;8742;51.716;8.790;2022-10-13T11:40:33;23.20;99.90
17252;DHT22;8742;51.716;8.790;2022-10-13T11:43:16;23.90;99.90
17252;DHT22;8742;51.716;8.790;2022-10-13T11:46:22;24.50;99.70
17252;DHT22;8742;51.716;8.790;2022-10-13T11:49:31;24.90;99.00
17252;DHT22;8742;51.716;8.790;2022-10-13T11:55:02;24.60;96.40
17252;DHT22;8742;51.716;8.790;2022-10-13T11:57:30;24.50;96.80
17252;DHT22;8742;51.716;8.790;2022-10-13T11:59:58;24.90;96.50
17252;DHT22;8742;51.716;8.790;2022-10-13T12:02:27;25.50;96.00
17252;DHT22;8742;51.716;8.790;2022-10-13T12:05:02;25.70;94.40
17252;DHT22;8742;51.716;8.790;2022-10-13T12:07:32;25.40;93.10
17252;DHT22;8742;51.716;8.790;2022-10-13T12:10:00;24.70;92.60
17252;DHT22;8742;51.716;8.790;2022-10-13T12:12:28;24.10;93.70
17252;DHT22;8742;51.716;8.790;2022-10-13T12:14:55;23.80;94.30
17252;DHT22;8742;51.716;8.790;2022-10-13T12:17:29;24.20;94.20
17252;DHT22;8742;51.716;8.790;2022-10-13T12:19:58;24.70;92.90
17252;DHT22;8742;51.716;8.790;2022-10-13T12:22:26;24.80;92.80
17252;DHT22;8742;51.716;8.790;2022-10-13T12:24:57;24.80;91.70
17252;DHT22;8742;51.716;8.790;2022-10-13T12:27:24;24.50;92.10
17252;DHT22;8742;51.716;8.790;2022-10-13T12:29:52;24.20;92.20
17252;DHT22;8742;51.716;8.790;2022-10-13T12:32:19;24.20;92.90
17252;DHT22;8742;51.716;8.790;2022-10-13T12:34:48;24.90;93.10
17252;DHT22;8742;51.716;8.790;2022-10-13T12:37:24;25.50;91.70
17252;DHT22;8742;51.716;8.790;2022-10-13T12:39:52;25.60;90.00
17252;DHT22;8742;51.716;8.790;2022-10-13T12:42:23;25.40;91.00
17252;DHT22;8742;51.716;8.790;2022-10-13T12:44:50;25.50;90.70
17252;DHT22;8742;51.716;8.790;2022-10-13T12:47:38;25.60;91.00
17252;DHT22;8742;51.716;8.790;2022-10-13T12:50:37;25.40;91.00
17252;DHT22;8742;51.716;8.790;2022-10-13T12:53:14;24.80;89.00
17252;DHT22;8742;51.716;8.790;2022-10-13T12:55:48;24.00;90.20
17252;DHT22;8742;51.716;8.790;2022-10-13T12:58:22;23.30;91.40
17252;DHT22;8742;51.716;8.790;2022-10-13T13:01:26;22.80;91.90
17252;DHT22;8742;51.716;8.790;2022-10-13T13:03:55;22.40;92.10
17252;DHT22;8742;51.716;8.790;2022-10-13T13:06:31;22.00;92.70
17252;DHT22;8742;51.716;8.790;2022-10-13T13:09:28;21.80;93.20
17252;DHT22;8742;51.716;8.790;2022-10-13T13:12:26;21.70;92.80
17252;DHT22;8742;51.716;8.790;2022-10-13T13:14:54;21.40;93.40
17252;DHT22;8742;51.716;8.790;2022-10-13T13:17:27;21.30;93.60
17252;DHT22;8742;51.716;8.790;2022-10-13T13:19:54;21.20;93.90
17252;DHT22;8742;51.716;8.790;2022-10-13T13:22:24;21.10;94.10
17252;DHT22;8742;51.716;8.790;2022-10-13T13:24:52;21.20;94.30
17252;DHT22;8742;51.716;8.790;2022-10-13T13:27:24;21.20;94.50
17252;DHT22;8742;51.716;8.790;2022-10-13T13:29:52;21.30;94.50
17252;DHT22;8742;51.716;8.790;2022-10-13T13:32:21;21.10;94.40
17252;DHT22;8742;51.716;8.790;2022-10-13T13:34:48;21.00;94.50
17252;DHT22;8742;51.716;8.790;2022-10-13T13:37:22;21.00;94.70
17252;DHT22;8742;51.716;8.790;2022-10-13T13:39:52;20.90;94.50
17252;DHT22;8742;51.716;8.790;2022-10-13T13:44:49;20.70;95.40
17252;DHT22;8742;51.716;8.790;2022-10-13T13:47:18;20.60;95.70
17252;DHT22;8742;51.716;8.790;2022-10-13T13:49:46;20.50;95.80
17252;DHT22;8742;51.716;8.790;2022-10-13T13:52:13;20.30;95.80
17252;DHT22;8742;51.716;8.790;2022-10-13T13:54:40;20.20;96.20
17252;DHT22;8742;51.716;8.790;2022-10-13T13:57:09;20.00;96.30
17252;DHT22;8742;51.716;8.790;2022-10-13T13:59:37;19.90;96.60
17252;DHT22;8742;51.716;8.790;2022-10-13T14:02:04;19.70;96.90
17252;DHT22;8742;51.716;8.790;2022-10-13T14:04:32;19.60;97.20
17252;DHT22;8742;51.716;8.790;2022-10-13T14:06:59;19.60;97.40
17252;DHT22;8742;51.716;8.790;2022-10-13T14:09:25;19.60;97.40
17252;DHT22;8742;51.716;8.790;2022-10-13T14:11:52;19.50;97.30
17252;DHT22;8742;51.716;8.790;2022-10-13T14:14:20;19.40;97.60
17252;DHT22;8742;51.716;8.790;2022-10-13T14:16:47;19.20;97.90
17252;DHT22;8742;51.716;8.790;2022-10-13T14:19:14;19.00;98.10
17252;DHT22;8742;51.716;8.790;2022-10-13T14:21:41;18.90;98.50
17252;DHT22;8742;51.716;8.790;2022-10-13T14:24:10;18.70;98.60
17252;DHT22;8742;51.716;8.790;2022-10-13T14:26:38;18.60;99.00
17252;DHT22;8742;51.716;8.790;2022-10-13T14:29:04;18.40;99.10
17252;DHT22;8742;51.716;8.790;2022-10-13T14:31:33;18.30;99.70
17252;DHT22;8742;51.716;8.790;2022-10-13T14:34:00;18.10;99.80
17252;DHT22;8742;51.716;8.790;2022-10-13T14:36:27;18.00;99.90
17252;DHT22;8742;51.716;8.790;2022-10-13T14:38:54;17.90;99.90
17252;DHT22;8742;51.716;8.790;2022-10-13T14:41:21;17.80;99.90
17252;DHT22;8742;51.716;8.790;2022-10-13T14:43:51;17.70;99.90
17252;DHT22;8742;51.716;8.790;2022-10-13T14:46:19;17.60;99.90
17252;DHT22;8742;51.716;8.790;2022-10-13T14:48:47;17.50;99.90
17252;DHT22;8742;51.716;8.790;2022-10-13T14:51:15;17.40;99.90
17252;DHT22;8742;51.716;8.790;2022-10-13T14:53:43;17.30;99.90
17252;DHT22;8742;51.716;8.790;2022-10-13T14:56:14;17.20;99.90
17252;DHT22;8742;51.716;8.790;2022-10-13T14:58:41;17.20;99.90
17252;DHT22;8742;51.716;8.790;2022-10-13T15:01:08;17.10;99.90
17252;DHT22;8742;51.716;8.790;2022-10-13T15:03:35;17.00;99.90
17252;DHT22;8742;51.716;8.790;2022-10-13T15:06:03;17.00;99.90
17252;DHT22;8742;51.716;8.790;2022-10-13T15:08:30;16.90;99.90
17252;DHT22;8742;51.716;8.790;2022-10-13T15:10:57;16.90;99.90
17252;DHT22;8742;51.716;8.790;2022-10-13T15:13:25;16.80;99.90
17252;DHT22;8742;51.716;8.790;2022-10-13T15:15:52;16.70;99.90
17252;DHT22;8742;51.716;8.790;2022-10-13T15:18:19;16.60;99.90
17252;DHT22;8742;51.716;8.790;2022-10-13T15:20:46;16.60;99.90
17252;DHT22;8742;51.716;8.790;2022-10-13T15:23:18;16.60;99.90
17252;DHT22;8742;51.716;8.790;2022-10-13T15:25:50;16.50;99.90
17252;DHT22;8742;51.716;8.790;2022-10-13T15:28:17;16.40;99.90
17252;DHT22;8742;51.716;8.790;2022-10-13T15:30:44;16.30;99.90
17252;DHT22;8742;51.716;8.790;2022-10-13T15:33:11;16.30;99.90
17252;DHT22;8742;51.716;8.790;2022-10-13T15:35:38;16.20;99.90
17252;DHT22;8742;51.716;8.790;2022-10-13T15:38:05;16.10;99.90
17252;DHT22;8742;51.716;8.790;2022-10-13T15:40:33;16.00;99.90
17252;DHT22;8742;51.716;8.790;2022-10-13T15:43:03;15.90;99.90
17252;DHT22;8742;51.716;8.790;2022-10-13T15:45:34;15.80;99.90
17252;DHT22;8742;51.716;8.790;2022-10-13T15:48:02;15.70;99.90
17252;DHT22;8742;51.716;8.790;2022-10-13T15:50:29;15.60;99.90
17252;DHT22;8742;51.716;8.790;2022-10-13T15:52:56;15.50;99.90
17252;DHT22;8742;51.716;8.790;2022-10-13T15:55:23;15.50;99.90
17252;DHT22;8742;51.716;8.790;2022-10-13T15:57:52;15.40;99.90
17252;DHT22;8742;51.716;8.790;2022-10-13T16:00:19;15.30;99.90
17252;DHT22;8742;51.716;8.790;2022-10-13T16:02:48;15.20;99.90
17252;DHT22;8742;51.716;8.790;2022-10-13T16:05:16;15.20;99.90
17252;DHT22;8742;51.716;8.790;2022-10-13T16:07:43;15.10;99.90
17252;DHT22;8742;51.716;8.790;2022-10-13T16:10:12;15.10;99.90
17252;DHT22;8742;51.716;8.790;2022-10-13T16:12:39;15.00;99.90
17252;DHT22;8742;51.716;8.790;2022-10-13T16:15:09;14.90;99.90